sensor_id;sensor_type;location;lat;lon;timestamp;temperature;humidity
27224;DHT22;14965;50.660;13.226;2022-07-22T00:01:39;16.80;99.90
27224;DHT22;14965;50.660;13.226;2022-07-22T00:04:05;16.70;99.90
27224;DHT22;14965;50.660;13.226;2022-07-22T00:06:31;16.70;99.90
27224;DHT22;14965;50.660;13.226;2022-07-22T00:08:57;16.60;99.90
27224;DHT22;14965;50.660;13.226;2022-07-22T00:11:24;16.50;99.90
27224;DHT22;14965;50.660;13.226;2022-07-22T00:13:50;16.40;99.90
27224;DHT22;14965;50.660;13.226;2022-07-22T00:16:16;16.40;99.90
27224;DHT22;14965;50.660;13.226;2022-07-22T00:18:42;16.40;99.90
27224;DHT22;14965;50.660;13.226;2022-07-22T00:21:08;16.40;99.90
27224;DHT22;14965;50.660;13.226;2022-07-22T00:23:33;16.40;99.90
27224;DHT22;14965;50.660;13.226;2022-07-22T00:25:59;16.40;99.90
27224;DHT22;14965;50.660;13.226;2022-07-22T00:28:27;16.40;99.90
27224;DHT22;14965;50.660;13.226;2022-07-22T00:30:52;16.40;99.90
27224;DHT22;14965;50.660;13.226;2022-07-22T00:33:18;16.40;99.90
27224;DHT22;14965;50.660;13.226;2022-07-22T00:35:44;16.30;99.90
27224;DHT22;14965;50.660;13.226;2022-07-22T00:38:10;16.30;99.90
27224;DHT22;14965;50.660;13.226;2022-07-22T00:40:36;16.30;99.90
27224;DHT22;14965;50.660;13.226;2022-07-22T00:43:02;16.30;99.90
27224;DHT22;14965;50.660;13.226;2022-07-22T00:45:29;16.30;99.90
27224;DHT22;14965;50.660;13.226;2022-07-22T00:47:55;16.20;99.90
27224;DHT22;14965;50.660;13.226;2022-07-22T00:50:21;16.20;99.90
27224;DHT22;14965;50.660;13.226;2022-07-22T00:52:47;16.00;99.90
27224;DHT22;14965;50.660;13.226;2022-07-22T00:55:13;16.00;99.90
27224;DHT22;14965;50.660;13.226;2022-07-22T00:57:40;16.00;99.90
27224;DHT22;14965;50.660;13.226;2022-07-22T01:00:08;16.10;99.90
27224;DHT22;14965;50.660;13.226;2022-07-22T01:02:38;16.10;99.90
27224;DHT22;14965;50.660;13.226;2022-07-22T01:05:05;16.10;99.90
27224;DHT22;14965;50.660;13.226;2022-07-22T01:07:32;16.10;99.90
27224;DHT22;14965;50.660;13.226;2022-07-22T01:09:58;16.10;99.90
27224;DHT22;14965;50.660;13.226;2022-07-22T01:12:23;16.10;99.90
27224;DHT22;14965;50.660;13.226;2022-07-22T01:14:50;16.00;99.90
27224;DHT22;14965;50.660;13.226;2022-07-22T01:17:17;15.90;99.90
27224;DHT22;14965;50.660;13.226;2022-07-22T01:19:44;15.90;99.90
27224;DHT22;14965;50.660;13.226;2022-07-22T01:22:12;15.80;99.90
27224;DHT22;14965;50.660;13.226;2022-07-22T01:24:38;15.80;99.90
27224;DHT22;14965;50.660;13.226;2022-07-22T01:27:04;15.80;99.90
27224;DHT22;14965;50.660;13.226;2022-07-22T01:29:30;15.80;99.90
27224;DHT22;14965;50.660;13.226;2022-07-22T01:31:56;15.80;99.90
27224;DHT22;14965;50.660;13.226;2022-07-22T01:34:21;15.80;99.90
27224;DHT22;14965;50.660;13.226;2022-07-22T01:36:47;15.80;99.90
27224;DHT22;14965;50.660;13.226;2022-07-22T01:39:15;15.90;99.90
27224;DHT22;14965;50.660;13.226;2022-07-22T01:41:41;15.80;99.90
27224;DHT22;14965;50.660;13.226;2022-07-22T01:44:07;15.80;99.90
27224;DHT22;14965;50.660;13.226;2022-07-22T01:46:33;15.80;99.90
27224;DHT22;14965;50.660;13.226;2022-07-22T01:48:59;15.70;99.90
27224;DHT22;14965;50.660;13.226;2022-07-22T01:51:25;15.60;99.90
27224;DHT22;14965;50.660;13.226;2022-07-22T01:53:51;15.50;99.90
27224;DHT22;14965;50.660;13.226;2022-07-22T01:56:18;15.50;99.90
27224;DHT22;14965;50.660;13.226;2022-07-22T01:58:44;15.50;99.90
27224;DHT22;14965;50.660;13.226;2022-07-22T02:01:10;15.40;99.90
27224;DHT22;14965;50.660;13.226;2022-07-22T02:03:36;15.50;99.90
27224;DHT22;14965;50.660;13.226;2022-07-22T02:06:02;15.40;99.90
27224;DHT22;14965;50.660;13.226;2022-07-22T02:08:28;15.40;99.90
27224;DHT22;14965;50.660;13.226;2022-07-22T02:10:54;15.40;99.90
27224;DHT22;14965;50.660;13.226;2022-07-22T02:13:21;15.40;99.90
27224;DHT22;14965;50.660;13.226;2022-07-22T02:15:47;15.30;99.90
27224;DHT22;14965;50.660;13.226;2022-07-22T02:18:16;15.30;99.90
27224;DHT22;14965;50.660;13.226;2022-07-22T02:20:43;15.30;99.90
27224;DHT22;14965;50.660;13.226;2022-07-22T02:23:10;15.30;99.90
27224;DHT22;14965;50.660;13.226;2022-07-22T02:25:36;15.30;99.90
27224;DHT22;14965;50.660;13.226;2022-07-22T02:28:03;15.30;99.90
27224;DHT22;14965;50.660;13.226;2022-07-22T02:30:30;15.40;99.90
27224;DHT22;14965;50.660;13.226;2022-07-22T02:32:57;15.30;99.90
27224;DHT22;14965;50.660;13.226;2022-07-22T02:35:23;15.30;99.90
27224;DHT22;14965;50.660;13.226;2022-07-22T02:37:49;15.20;99.90
27224;DHT22;14965;50.660;13.226;2022-07-22T02:40:14;15.20;99.90
27224;DHT22;14965;50.660;13.226;2022-07-22T02:42:40;15.10;99.90
27224;DHT22;14965;50.660;13.226;2022-07-22T02:45:08;15.10;99.90
27224;DHT22;14965;50.660;13.226;2022-07-22T02:47:45;15.10;99.90
27224;DHT22;14965;50.660;13.226;2022-07-22T02:50:12;15.10;99.90
27224;DHT22;14965;50.660;13.226;2022-07-22T02:52:38;15.00;99.90
27224;DHT22;14965;50.660;13.226;2022-07-22T02:55:05;15.00;99.90
27224;DHT22;14965;50.660;13.226;2022-07-22T02:57:31;15.00;99.90
27224;DHT22;14965;50.660;13.226;2022-07-22T02:59:57;15.00;99.90
27224;DHT22;14965;50.660;13.226;2022-07-22T03:02:23;15.00;99.90
27224;DHT22;14965;50.660;13.226;2022-07-22T03:04:50;15.00;99.90
27224;DHT22;14965;50.660;13.226;2022-07-22T03:07:16;14.90;99.90
27224;DHT22;14965;50.660;13.226;2022-07-22T03:09:42;14.90;99.90
27224;DHT22;14965;50.660;13.226;2022-07-22T03:12:07;14.90;99.90
27224;DHT22;14965;50.660;13.226;2022-07-22T03:14:33;14.90;99.90
27224;DHT22;14965;50.660;13.226;2022-07-22T03:16:59;14.80;99.90
27224;DHT22;14965;50.660;13.226;2022-07-22T03:19:25;14.90;99.90
27224;DHT22;14965;50.660;13.226;2022-07-22T03:21:52;14.90;99.90
27224;DHT22;14965;50.660;13.226;2022-07-22T03:24:18;14.80;99.90
27224;DHT22;14965;50.660;13.226;2022-07-22T03:26:44;14.80;99.90
27224;DHT22;14965;50.660;13.226;2022-07-22T03:29:10;14.80;99.90
27224;DHT22;14965;50.660;13.226;2022-07-22T03:31:36;14.80;99.90
27224;DHT22;14965;50.660;13.226;2022-07-22T03:34:02;14.80;99.90
27224;DHT22;14965;50.660;13.226;2022-07-22T03:36:28;14.80;99.90
27224;DHT22;14965;50.660;13.226;2022-07-22T03:38:55;14.70;99.90
27224;DHT22;14965;50.660;13.226;2022-07-22T03:41:21;14.70;99.90
27224;DHT22;14965;50.660;13.226;2022-07-22T03:43:48;14.70;99.90
27224;DHT22;14965;50.660;13.226;2022-07-22T03:46:14;14.70;99.90
27224;DHT22;14965;50.660;13.226;2022-07-22T03:48:40;14.80;99.90
27224;DHT22;14965;50.660;13.226;2022-07-22T03:51:06;14.80;99.90
27224;DHT22;14965;50.660;13.226;2022-07-22T03:53:32;14.90;99.90
27224;DHT22;14965;50.660;13.226;2022-07-22T03:55:59;14.90;99.90
27224;DHT22;14965;50.660;13.226;2022-07-22T03:58:25;14.90;99.90
27224;DHT22;14965;50.660;13.226;2022-07-22T04:00:51;14.90;99.90
27224;DHT22;14965;50.660;13.226;2022-07-22T04:03:17;15.00;99.90
27224;DHT22;14965;50.660;13.226;2022-07-22T04:05:43;15.00;99.90
27224;DHT22;14965;50.660;13.226;2022-07-22T04:08:09;15.00;99.90
27224;DHT22;14965;50.660;13.226;2022-07-22T04:10:34;14.90;99.90
27224;DHT22;14965;50.660;13.226;2022-07-22T04:13:02;14.90;99.90
27224;DHT22;14965;50.660;13.226;2022-07-22T04:15:27;15.00;99.90
27224;DHT22;14965;50.660;13.226;2022-07-22T04:17:53;15.00;99.90
27224;DHT22;14965;50.660;13.226;2022-07-22T04:20:19;15.20;99.90
27224;DHT22;14965;50.660;13.226;2022-07-22T04:22:45;15.30;99.90
27224;DHT22;14965;50.660;13.226;2022-07-22T04:25:11;15.40;99.90
27224;DHT22;14965;50.660;13.226;2022-07-22T04:27:37;15.50;99.90
27224;DHT22;14965;50.660;13.226;2022-07-22T04:30:05;15.60;99.90
27224;DHT22;14965;50.660;13.226;2022-07-22T04:32:32;15.70;99.90
27224;DHT22;14965;50.660;13.226;2022-07-22T04:34:58;15.80;99.90
27224;DHT22;14965;50.660;13.226;2022-07-22T04:37:24;16.00;99.90
27224;DHT22;14965;50.660;13.226;2022-07-22T04:39:50;16.70;99.90
27224;DHT22;14965;50.660;13.226;2022-07-22T04:42:16;17.60;99.90
27224;DHT22;14965;50.660;13.226;2022-07-22T04:44:41;18.50;99.90
27224;DHT22;14965;50.660;13.226;2022-07-22T04:47:09;19.50;99.90
27224;DHT22;14965;50.660;13.226;2022-07-22T04:49:34;20.40;99.90
27224;DHT22;14965;50.660;13.226;2022-07-22T04:52:00;21.20;99.90
27224;DHT22;14965;50.660;13.226;2022-07-22T04:54:26;21.90;99.90
27224;DHT22;14965;50.660;13.226;2022-07-22T04:56:52;22.40;99.90
27224;DHT22;14965;50.660;13.226;2022-07-22T04:59:18;22.90;99.90
27224;DHT22;14965;50.660;13.226;2022-07-22T05:01:43;23.10;99.90
27224;DHT22;14965;50.660;13.226;2022-07-22T05:04:11;23.50;99.90
27224;DHT22;14965;50.660;13.226;2022-07-22T05:06:36;24.00;99.90
27224;DHT22;14965;50.660;13.226;2022-07-22T05:09:02;24.50;99.90
27224;DHT22;14965;50.660;13.226;2022-07-22T05:11:29;24.90;99.90
27224;DHT22;14965;50.660;13.226;2022-07-22T05:13:55;25.40;99.90
27224;DHT22;14965;50.660;13.226;2022-07-22T05:16:20;25.70;99.70
27224;DHT22;14965;50.660;13.226;2022-07-22T05:18:46;26.10;98.10
27224;DHT22;14965;50.660;13.226;2022-07-22T05:21:14;26.40;96.50
27224;DHT22;14965;50.660;13.226;2022-07-22T05:23:40;26.80;95.70
27224;DHT22;14965;50.660;13.226;2022-07-22T05:26:06;26.80;95.20
27224;DHT22;14965;50.660;13.226;2022-07-22T05:28:32;26.90;94.40
27224;DHT22;14965;50.660;13.226;2022-07-22T05:30:58;27.10;94.30
27224;DHT22;14965;50.660;13.226;2022-07-22T05:33:24;27.20;93.80
27224;DHT22;14965;50.660;13.226;2022-07-22T05:35:51;27.60;92.90
27224;DHT22;14965;50.660;13.226;2022-07-22T05:38:18;27.90;92.30
27224;DHT22;14965;50.660;13.226;2022-07-22T05:40:44;28.20;91.40
27224;DHT22;14965;50.660;13.226;2022-07-22T05:43:10;28.40;90.70
27224;DHT22;14965;50.660;13.226;2022-07-22T05:45:36;28.60;89.70
27224;DHT22;14965;50.660;13.226;2022-07-22T05:48:02;28.60;88.80
27224;DHT22;14965;50.660;13.226;2022-07-22T05:50:28;28.70;88.60
27224;DHT22;14965;50.660;13.226;2022-07-22T05:52:54;28.90;86.70
27224;DHT22;14965;50.660;13.226;2022-07-22T05:55:21;29.10;86.40
27224;DHT22;14965;50.660;13.226;2022-07-22T05:57:47;29.30;86.20
27224;DHT22;14965;50.660;13.226;2022-07-22T06:00:14;28.90;86.30
27224;DHT22;14965;50.660;13.226;2022-07-22T06:02:40;28.80;86.70
27224;DHT22;14965;50.660;13.226;2022-07-22T06:05:07;28.50;88.10
27224;DHT22;14965;50.660;13.226;2022-07-22T06:07:33;28.50;88.40
27224;DHT22;14965;50.660;13.226;2022-07-22T06:09:59;27.90;88.90
27224;DHT22;14965;50.660;13.226;2022-07-22T06:12:26;27.40;89.10
27224;DHT22;14965;50.660;13.226;2022-07-22T06:14:52;26.80;90.90
27224;DHT22;14965;50.660;13.226;2022-07-22T06:17:17;26.70;91.40
27224;DHT22;14965;50.660;13.226;2022-07-22T06:19:43;26.70;91.20
27224;DHT22;14965;50.660;13.226;2022-07-22T06:22:09;26.30;91.80
27224;DHT22;14965;50.660;13.226;2022-07-22T06:24:35;25.80;92.60
27224;DHT22;14965;50.660;13.226;2022-07-22T06:27:01;25.80;93.20
27224;DHT22;14965;50.660;13.226;2022-07-22T06:29:28;25.80;93.20
27224;DHT22;14965;50.660;13.226;2022-07-22T06:31:54;25.50;93.50
27224;DHT22;14965;50.660;13.226;2022-07-22T06:34:19;25.80;93.30
27224;DHT22;14965;50.660;13.226;2022-07-22T06:36:45;25.80;93.50
27224;DHT22;14965;50.660;13.226;2022-07-22T06:39:11;25.80;94.50
27224;DHT22;14965;50.660;13.226;2022-07-22T06:41:37;25.90;93.20
27224;DHT22;14965;50.660;13.226;2022-07-22T06:44:03;25.80;92.90
27224;DHT22;14965;50.660;13.226;2022-07-22T06:46:31;25.60;92.70
27224;DHT22;14965;50.660;13.226;2022-07-22T06:48:57;25.40;94.20
27224;DHT22;14965;50.660;13.226;2022-07-22T06:51:22;25.20;94.80
27224;DHT22;14965;50.660;13.226;2022-07-22T06:53:48;25.10;94.80
27224;DHT22;14965;50.660;13.226;2022-07-22T06:56:14;24.80;95.20
27224;DHT22;14965;50.660;13.226;2022-07-22T06:58:40;24.70;95.00
27224;DHT22;14965;50.660;13.226;2022-07-22T07:01:06;24.60;94.20
27224;DHT22;14965;50.660;13.226;2022-07-22T07:03:33;25.00;94.00
27224;DHT22;14965;50.660;13.226;2022-07-22T07:05:59;25.30;92.40
27224;DHT22;14965;50.660;13.226;2022-07-22T07:08:25;25.30;92.40
27224;DHT22;14965;50.660;13.226;2022-07-22T07:10:51;25.50;92.60
27224;DHT22;14965;50.660;13.226;2022-07-22T07:13:16;25.40;93.00
27224;DHT22;14965;50.660;13.226;2022-07-22T07:15:42;25.70;93.20
27224;DHT22;14965;50.660;13.226;2022-07-22T07:18:08;26.10;93.10
27224;DHT22;14965;50.660;13.226;2022-07-22T07:20:35;26.40;93.20
27224;DHT22;14965;50.660;13.226;2022-07-22T07:23:02;25.80;92.30
27224;DHT22;14965;50.660;13.226;2022-07-22T07:25:28;25.50;92.50
27224;DHT22;14965;50.660;13.226;2022-07-22T07:27:54;25.40;93.40
27224;DHT22;14965;50.660;13.226;2022-07-22T07:30:20;25.40;93.60
27224;DHT22;14965;50.660;13.226;2022-07-22T07:32:46;25.50;93.40
27224;DHT22;14965;50.660;13.226;2022-07-22T07:35:12;25.50;93.60
27224;DHT22;14965;50.660;13.226;2022-07-22T07:37:39;25.40;93.20
27224;DHT22;14965;50.660;13.226;2022-07-22T07:40:06;25.30;93.40
27224;DHT22;14965;50.660;13.226;2022-07-22T07:42:33;25.30;94.30
27224;DHT22;14965;50.660;13.226;2022-07-22T07:44:59;25.40;94.00
27224;DHT22;14965;50.660;13.226;2022-07-22T07:47:25;25.40;93.70
27224;DHT22;14965;50.660;13.226;2022-07-22T07:49:51;25.40;94.10
27224;DHT22;14965;50.660;13.226;2022-07-22T07:52:17;25.50;95.00
27224;DHT22;14965;50.660;13.226;2022-07-22T07:54:45;25.40;95.10
27224;DHT22;14965;50.660;13.226;2022-07-22T07:57:13;25.30;94.90
27224;DHT22;14965;50.660;13.226;2022-07-22T07:59:39;25.30;94.90
27224;DHT22;14965;50.660;13.226;2022-07-22T08:02:06;25.20;95.10
27224;DHT22;14965;50.660;13.226;2022-07-22T08:04:34;25.40;95.00
27224;DHT22;14965;50.660;13.226;2022-07-22T08:07:00;25.50;95.30
27224;DHT22;14965;50.660;13.226;2022-07-22T08:09:26;25.40;94.90
27224;DHT22;14965;50.660;13.226;2022-07-22T08:11:53;25.40;95.40
27224;DHT22;14965;50.660;13.226;2022-07-22T08:14:19;25.50;95.20
27224;DHT22;14965;50.660;13.226;2022-07-22T08:16:45;25.70;95.20
27224;DHT22;14965;50.660;13.226;2022-07-22T08:19:11;25.80;94.40
27224;DHT22;14965;50.660;13.226;2022-07-22T08:21:38;25.90;94.60
27224;DHT22;14965;50.660;13.226;2022-07-22T08:24:04;25.80;93.70
27224;DHT22;14965;50.660;13.226;2022-07-22T08:26:30;25.60;94.80
27224;DHT22;14965;50.660;13.226;2022-07-22T08:28:57;25.60;95.30
27224;DHT22;14965;50.660;13.226;2022-07-22T08:31:23;25.70;94.70
27224;DHT22;14965;50.660;13.226;2022-07-22T08:33:49;25.80;94.70
27224;DHT22;14965;50.660;13.226;2022-07-22T08:36:14;25.90;95.50
27224;DHT22;14965;50.660;13.226;2022-07-22T08:38:40;25.90;94.30
27224;DHT22;14965;50.660;13.226;2022-07-22T08:41:06;25.90;95.00
27224;DHT22;14965;50.660;13.226;2022-07-22T08:43:35;25.80;95.00
27224;DHT22;14965;50.660;13.226;2022-07-22T08:46:05;25.40;95.00
27224;DHT22;14965;50.660;13.226;2022-07-22T08:48:30;25.40;95.90
27224;DHT22;14965;50.660;13.226;2022-07-22T08:50:56;25.50;95.30
27224;DHT22;14965;50.660;13.226;2022-07-22T08:53:22;25.60;94.90
27224;DHT22;14965;50.660;13.226;2022-07-22T08:55:48;25.60;95.40
27224;DHT22;14965;50.660;13.226;2022-07-22T08:58:15;25.80;95.60
27224;DHT22;14965;50.660;13.226;2022-07-22T09:00:41;26.00;94.30
27224;DHT22;14965;50.660;13.226;2022-07-22T09:03:19;25.90;95.20
27224;DHT22;14965;50.660;13.226;2022-07-22T09:05:46;26.00;95.30
27224;DHT22;14965;50.660;13.226;2022-07-22T09:08:14;26.20;94.50
27224;DHT22;14965;50.660;13.226;2022-07-22T09:10:40;26.50;93.60
27224;DHT22;14965;50.660;13.226;2022-07-22T09:13:07;26.60;93.50
27224;DHT22;14965;50.660;13.226;2022-07-22T09:15:36;26.50;94.70
27224;DHT22;14965;50.660;13.226;2022-07-22T09:18:04;26.00;94.60
27224;DHT22;14965;50.660;13.226;2022-07-22T09:20:33;25.80;95.70
27224;DHT22;14965;50.660;13.226;2022-07-22T09:23:01;25.70;95.50
27224;DHT22;14965;50.660;13.226;2022-07-22T09:25:29;25.60;95.60
27224;DHT22;14965;50.660;13.226;2022-07-22T09:28:11;25.60;95.70
27224;DHT22;14965;50.660;13.226;2022-07-22T09:30:41;25.60;94.60
27224;DHT22;14965;50.660;13.226;2022-07-22T09:33:11;25.70;94.90
27224;DHT22;14965;50.660;13.226;2022-07-22T09:35:39;25.90;93.40
27224;DHT22;14965;50.660;13.226;2022-07-22T09:38:06;26.00;94.70
27224;DHT22;14965;50.660;13.226;2022-07-22T09:40:35;26.20;94.50
27224;DHT22;14965;50.660;13.226;2022-07-22T09:43:04;26.20;93.30
27224;DHT22;14965;50.660;13.226;2022-07-22T09:45:32;26.00;94.10
27224;DHT22;14965;50.660;13.226;2022-07-22T09:47:59;26.10;95.20
27224;DHT22;14965;50.660;13.226;2022-07-22T09:50:28;25.90;92.60
27224;DHT22;14965;50.660;13.226;2022-07-22T09:52:57;25.90;92.70
27224;DHT22;14965;50.660;13.226;2022-07-22T09:55:25;26.10;93.40
27224;DHT22;14965;50.660;13.226;2022-07-22T09:57:53;26.30;93.30
27224;DHT22;14965;50.660;13.226;2022-07-22T10:00:22;26.10;93.80
27224;DHT22;14965;50.660;13.226;2022-07-22T10:02:52;26.30;93.10
27224;DHT22;14965;50.660;13.226;2022-07-22T10:05:21;26.50;92.80
27224;DHT22;14965;50.660;13.226;2022-07-22T10:07:50;26.40;93.30
27224;DHT22;14965;50.660;13.226;2022-07-22T10:10:21;26.40;93.40
27224;DHT22;14965;50.660;13.226;2022-07-22T10:12:49;26.40;92.40
27224;DHT22;14965;50.660;13.226;2022-07-22T10:15:17;26.60;91.70
27224;DHT22;14965;50.660;13.226;2022-07-22T10:17:45;26.80;91.20
27224;DHT22;14965;50.660;13.226;2022-07-22T10:20:12;26.80;92.20
27224;DHT22;14965;50.660;13.226;2022-07-22T10:22:47;26.80;92.00
27224;DHT22;14965;50.660;13.226;2022-07-22T10:25:19;27.10;91.80
27224;DHT22;14965;50.660;13.226;2022-07-22T10:27:48;27.00;92.40
27224;DHT22;14965;50.660;13.226;2022-07-22T10:30:18;26.90;91.70
27224;DHT22;14965;50.660;13.226;2022-07-22T10:32:45;26.80;91.40
27224;DHT22;14965;50.660;13.226;2022-07-22T10:35:28;26.60;90.80
27224;DHT22;14965;50.660;13.226;2022-07-22T10:37:58;26.40;92.50
27224;DHT22;14965;50.660;13.226;2022-07-22T10:40:29;26.40;91.90
27224;DHT22;14965;50.660;13.226;2022-07-22T10:43:04;26.40;92.00
27224;DHT22;14965;50.660;13.226;2022-07-22T10:45:32;26.50;91.30
27224;DHT22;14965;50.660;13.226;2022-07-22T10:48:00;26.60;90.90
27224;DHT22;14965;50.660;13.226;2022-07-22T10:50:42;26.50;91.50
27224;DHT22;14965;50.660;13.226;2022-07-22T10:53:17;26.40;91.00
27224;DHT22;14965;50.660;13.226;2022-07-22T10:56:01;26.40;91.70
27224;DHT22;14965;50.660;13.226;2022-07-22T10:58:52;26.40;91.80
27224;DHT22;14965;50.660;13.226;2022-07-22T11:01:23;26.50;91.60
27224;DHT22;14965;50.660;13.226;2022-07-22T11:03:51;26.60;90.40
27224;DHT22;14965;50.660;13.226;2022-07-22T11:06:35;26.50;91.20
27224;DHT22;14965;50.660;13.226;2022-07-22T11:09:03;26.60;91.40
27224;DHT22;14965;50.660;13.226;2022-07-22T11:11:34;26.70;91.70
27224;DHT22;14965;50.660;13.226;2022-07-22T11:14:03;26.70;91.00
27224;DHT22;14965;50.660;13.226;2022-07-22T11:16:29;26.70;89.80
27224;DHT22;14965;50.660;13.226;2022-07-22T11:18:57;26.80;91.30
27224;DHT22;14965;50.660;13.226;2022-07-22T11:21:26;26.80;90.30
27224;DHT22;14965;50.660;13.226;2022-07-22T11:23:54;26.70;90.20
27224;DHT22;14965;50.660;13.226;2022-07-22T11:26:23;26.60;90.50
27224;DHT22;14965;50.660;13.226;2022-07-22T11:28:53;26.70;89.70
27224;DHT22;14965;50.660;13.226;2022-07-22T11:31:20;26.70;91.40
27224;DHT22;14965;50.660;13.226;2022-07-22T11:33:46;26.60;90.40
27224;DHT22;14965;50.660;13.226;2022-07-22T11:36:12;26.60;90.10
27224;DHT22;14965;50.660;13.226;2022-07-22T11:38:46;26.70;90.30
27224;DHT22;14965;50.660;13.226;2022-07-22T11:41:15;26.60;90.50
27224;DHT22;14965;50.660;13.226;2022-07-22T11:43:43;26.60;90.20
27224;DHT22;14965;50.660;13.226;2022-07-22T11:46:12;26.60;90.40
27224;DHT22;14965;50.660;13.226;2022-07-22T11:48:38;26.70;91.90
27224;DHT22;14965;50.660;13.226;2022-07-22T11:51:05;26.60;90.30
27224;DHT22;14965;50.660;13.226;2022-07-22T11:53:32;26.50;90.70
27224;DHT22;14965;50.660;13.226;2022-07-22T11:55:59;26.30;90.30
27224;DHT22;14965;50.660;13.226;2022-07-22T11:58:34;26.10;89.30
27224;DHT22;14965;50.660;13.226;2022-07-22T12:01:05;26.10;90.10
27224;DHT22;14965;50.660;13.226;2022-07-22T12:03:34;26.10;90.50
27224;DHT22;14965;50.660;13.226;2022-07-22T12:06:01;26.10;89.60
27224;DHT22;14965;50.660;13.226;2022-07-22T12:08:29;26.10;90.70
27224;DHT22;14965;50.660;13.226;2022-07-22T12:10:56;26.10;90.70
27224;DHT22;14965;50.660;13.226;2022-07-22T12:13:28;26.00;90.90
27224;DHT22;14965;50.660;13.226;2022-07-22T12:15:54;26.10;90.10
27224;DHT22;14965;50.660;13.226;2022-07-22T12:18:21;26.20;90.20
27224;DHT22;14965;50.660;13.226;2022-07-22T12:20:51;26.40;91.20
27224;DHT22;14965;50.660;13.226;2022-07-22T12:23:20;26.40;89.90
27224;DHT22;14965;50.660;13.226;2022-07-22T12:25:54;26.30;88.10
27224;DHT22;14965;50.660;13.226;2022-07-22T12:28:22;26.30;90.40
27224;DHT22;14965;50.660;13.226;2022-07-22T12:30:49;26.40;90.60
27224;DHT22;14965;50.660;13.226;2022-07-22T12:33:16;26.50;89.60
27224;DHT22;14965;50.660;13.226;2022-07-22T12:35:43;26.50;88.80
27224;DHT22;14965;50.660;13.226;2022-07-22T12:38:11;26.50;87.90
27224;DHT22;14965;50.660;13.226;2022-07-22T12:40:37;26.50;87.50
27224;DHT22;14965;50.660;13.226;2022-07-22T12:43:05;26.50;88.60
27224;DHT22;14965;50.660;13.226;2022-07-22T12:45:33;26.60;88.10
27224;DHT22;14965;50.660;13.226;2022-07-22T12:48:05;26.50;88.80
27224;DHT22;14965;50.660;13.226;2022-07-22T12:50:33;26.50;87.00
27224;DHT22;14965;50.660;13.226;2022-07-22T12:53:02;26.60;90.00
27224;DHT22;14965;50.660;13.226;2022-07-22T12:55:32;26.70;90.70
27224;DHT22;14965;50.660;13.226;2022-07-22T12:57:58;26.70;88.50
27224;DHT22;14965;50.660;13.226;2022-07-22T13:00:26;26.80;86.60
27224;DHT22;14965;50.660;13.226;2022-07-22T13:02:53;26.70;88.50
27224;DHT22;14965;50.660;13.226;2022-07-22T13:05:20;26.50;85.40
27224;DHT22;14965;50.660;13.226;2022-07-22T13:07:47;26.40;90.00
27224;DHT22;14965;50.660;13.226;2022-07-22T13:10:14;26.40;87.80
27224;DHT22;14965;50.660;13.226;2022-07-22T13:12:42;26.30;88.10
27224;DHT22;14965;50.660;13.226;2022-07-22T13:15:09;26.40;90.10
27224;DHT22;14965;50.660;13.226;2022-07-22T13:17:35;26.40;90.80
27224;DHT22;14965;50.660;13.226;2022-07-22T13:20:02;26.50;87.20
27224;DHT22;14965;50.660;13.226;2022-07-22T13:22:29;26.50;90.10
27224;DHT22;14965;50.660;13.226;2022-07-22T13:24:55;26.60;86.80
27224;DHT22;14965;50.660;13.226;2022-07-22T13:27:21;26.50;84.80
27224;DHT22;14965;50.660;13.226;2022-07-22T13:29:48;26.40;88.10
27224;DHT22;14965;50.660;13.226;2022-07-22T13:32:14;26.40;89.30
27224;DHT22;14965;50.660;13.226;2022-07-22T13:34:40;26.40;90.00
27224;DHT22;14965;50.660;13.226;2022-07-22T13:37:06;26.40;85.90
27224;DHT22;14965;50.660;13.226;2022-07-22T13:39:32;26.40;85.60
27224;DHT22;14965;50.660;13.226;2022-07-22T13:41:58;26.40;88.50
27224;DHT22;14965;50.660;13.226;2022-07-22T13:44:24;26.30;89.80
27224;DHT22;14965;50.660;13.226;2022-07-22T13:46:51;26.40;89.90
27224;DHT22;14965;50.660;13.226;2022-07-22T13:49:17;26.40;89.00
27224;DHT22;14965;50.660;13.226;2022-07-22T13:51:43;26.40;86.40
27224;DHT22;14965;50.660;13.226;2022-07-22T13:54:09;26.30;87.80
27224;DHT22;14965;50.660;13.226;2022-07-22T13:56:35;26.30;84.80
27224;DHT22;14965;50.660;13.226;2022-07-22T13:59:03;26.30;87.70
27224;DHT22;14965;50.660;13.226;2022-07-22T14:01:29;26.20;86.20
27224;DHT22;14965;50.660;13.226;2022-07-22T14:03:56;26.20;87.00
27224;DHT22;14965;50.660;13.226;2022-07-22T14:06:22;26.20;90.30
27224;DHT22;14965;50.660;13.226;2022-07-22T14:08:47;26.40;89.20
27224;DHT22;14965;50.660;13.226;2022-07-22T14:11:13;26.40;88.80
27224;DHT22;14965;50.660;13.226;2022-07-22T14:13:39;26.20;89.20
27224;DHT22;14965;50.660;13.226;2022-07-22T14:16:05;26.20;86.90
27224;DHT22;14965;50.660;13.226;2022-07-22T14:18:31;26.10;87.60
27224;DHT22;14965;50.660;13.226;2022-07-22T14:20:59;26.20;88.20
27224;DHT22;14965;50.660;13.226;2022-07-22T14:23:24;26.20;88.80
27224;DHT22;14965;50.660;13.226;2022-07-22T14:25:50;26.20;87.40
27224;DHT22;14965;50.660;13.226;2022-07-22T14:28:16;26.20;90.40
27224;DHT22;14965;50.660;13.226;2022-07-22T14:30:42;26.30;88.90
27224;DHT22;14965;50.660;13.226;2022-07-22T14:33:08;26.20;87.10
27224;DHT22;14965;50.660;13.226;2022-07-22T14:35:33;26.20;87.50
27224;DHT22;14965;50.660;13.226;2022-07-22T14:38:01;26.20;87.10
27224;DHT22;14965;50.660;13.226;2022-07-22T14:40:27;26.10;89.00
27224;DHT22;14965;50.660;13.226;2022-07-22T14:42:53;26.10;87.10
27224;DHT22;14965;50.660;13.226;2022-07-22T14:45:19;26.10;88.80
27224;DHT22;14965;50.660;13.226;2022-07-22T14:47:45;26.10;89.00
27224;DHT22;14965;50.660;13.226;2022-07-22T14:50:10;26.00;88.90
27224;DHT22;14965;50.660;13.226;2022-07-22T14:52:36;26.00;90.30
27224;DHT22;14965;50.660;13.226;2022-07-22T14:55:04;26.00;88.40
27224;DHT22;14965;50.660;13.226;2022-07-22T14:57:30;26.10;90.00
27224;DHT22;14965;50.660;13.226;2022-07-22T14:59:56;26.00;90.20
27224;DHT22;14965;50.660;13.226;2022-07-22T15:02:22;26.00;88.30
27224;DHT22;14965;50.660;13.226;2022-07-22T15:04:47;25.90;88.00
27224;DHT22;14965;50.660;13.226;2022-07-22T15:07:13;25.90;87.70
27224;DHT22;14965;50.660;13.226;2022-07-22T15:09:39;25.80;87.60
27224;DHT22;14965;50.660;13.226;2022-07-22T15:12:06;25.80;87.50
27224;DHT22;14965;50.660;13.226;2022-07-22T15:14:33;25.80;87.60